Flugplatz Dinslaken/Schwarze Heide

Für EDLD sind keine METAR/TAF Berichte vorhanden.
Es werden die Flugwettermeldungen vom Flugplatz Düsseldorf International in 37 km Entfernung angezeigt.

Bericht für EDDL

vom 11.07. um 06:20 UTC

variable Windrichtung mit 1 kt

Sichtweite 10 km oder mehr

gering bewölkt in 2000 ft

Temperatur 15.0°C

Taupunkt 11.0°C

Luftfeuchtigkeit 77%

Luftdruck 1023 hPa

EDDL 110620Z VRB01KT 9999 FEW020 15/11 Q1023 BECMG 30005KT

Prognose für EDDL

vom 11.07. um 05:00 UTC

Zwischen 06:00 UTC und 07:00 UTC

variable Windrichtung mit 3 kt

Sichtweite 10 km oder mehr

gering bewölkt in 4000 ft


Zwischen 07:00 und 10:00 UTC übergehend zu

Wind 6 kt aus 290°

Sichtweite 10 km oder mehr

gering bewölkt in 4000 ft


Zwischen 19:00 und 22:00 UTC übergehend zu

variable Windrichtung mit 3 kt

Sichtweite 10 km oder mehr

gering bewölkt in 4000 ft


Am 12.07. zwischen 08:00 und 10:00 UTC übergehend zu

Wind 5 kt aus 360°

Sichtweite 10 km oder mehr

gering bewölkt in 4000 ft

TAF EDDL 110500Z 1106/1212 VRB03KT 9999 FEW040 BECMG 1107/1110 29006KT BECMG 1119/1122 VRB03KT BECMG 1208/1210 36005KT
Impressum